createdAt,value
2023-03-30T00:01:02.223Z,6.13
2023-03-30T00:03:29.323Z,13.38
2023-03-30T00:05:56.680Z,9.23
2023-03-30T00:08:28.254Z,14.75
2023-03-30T00:11:03.839Z,9.00
2023-03-30T00:13:31.713Z,12.55
2023-03-30T00:15:58.742Z,8.75
2023-03-30T00:18:26.370Z,14.50
2023-03-30T00:20:53.052Z,14.40
2023-03-30T00:23:19.852Z,14.60
2023-03-30T00:25:47.855Z,9.93
2023-03-30T00:28:14.607Z,10.20
2023-03-30T00:30:41.725Z,14.23
2023-03-30T00:33:08.360Z,11.18
2023-03-30T00:35:36.324Z,11.95
2023-03-30T00:38:03.267Z,8.88
2023-03-30T00:40:31.464Z,10.70
2023-03-30T00:43:02.249Z,12.13
2023-03-30T00:45:32.546Z,12.52
2023-03-30T00:48:07.024Z,12.90
2023-03-30T00:50:35.306Z,12.65
2023-03-30T00:53:09.942Z,11.25
2023-03-30T00:55:38.898Z,9.35
2023-03-30T00:58:07.216Z,13.77
2023-03-30T01:00:34.224Z,9.55
2023-03-30T01:03:05.484Z,9.80
2023-03-30T01:05:32.220Z,6.78
2023-03-30T01:07:59.216Z,10.73
2023-03-30T01:10:25.977Z,10.75
2023-03-30T01:12:52.840Z,13.63
2023-03-30T01:15:20.440Z,8.57
2023-03-30T01:18:30.482Z,10.25
2023-03-30T01:21:34.296Z,10.43
2023-03-30T01:24:43.012Z,17.70
2023-03-30T01:27:24.646Z,11.85
2023-03-30T01:30:14.116Z,9.93
2023-03-30T01:32:58.637Z,11.35
2023-03-30T01:35:47.873Z,10.93
2023-03-30T01:38:31.477Z,8.02
2023-03-30T01:41:20.038Z,9.45
2023-03-30T01:43:58.609Z,11.63
2023-03-30T01:46:30.845Z,16.50
2023-03-30T01:49:08.488Z,15.35
2023-03-30T01:51:44.598Z,10.48
2023-03-30T01:54:26.057Z,10.48
2023-03-30T01:59:34.789Z,9.80
2023-03-30T02:02:04.221Z,13.43
2023-03-30T02:04:34.228Z,15.23
2023-03-30T02:07:04.197Z,10.70
2023-03-30T02:09:32.547Z,8.82
2023-03-30T02:12:01.092Z,8.43
2023-03-30T02:14:31.104Z,11.05
2023-03-30T02:17:02.312Z,9.02
2023-03-30T02:19:30.077Z,7.82
2023-03-30T02:21:56.578Z,9.77
2023-03-30T02:24:26.060Z,10.35
2023-03-30T02:26:54.338Z,10.88
2023-03-30T02:29:22.891Z,8.55
2023-03-30T02:31:51.025Z,9.35
2023-03-30T02:34:49.737Z,7.05
2023-03-30T02:37:22.161Z,14.68
2023-03-30T02:40:08.890Z,5.32
2023-03-30T02:43:06.258Z,10.52
2023-03-30T02:45:44.629Z,7.38
2023-03-30T02:48:36.049Z,9.32
2023-03-30T02:51:21.566Z,5.85
2023-03-30T02:54:45.416Z,13.85
2023-03-30T02:57:34.142Z,11.93
2023-03-30T03:00:26.754Z,13.57
2023-03-30T03:02:58.979Z,6.03
2023-03-30T03:05:28.830Z,8.90
2023-03-30T03:08:09.356Z,10.23
2023-03-30T03:10:37.282Z,7.53
2023-03-30T03:13:05.117Z,7.43
2023-03-30T03:15:32.296Z,10.13
2023-03-30T03:18:08.524Z,7.30
2023-03-30T03:20:36.059Z,5.88
2023-03-30T03:23:03.173Z,11.27
2023-03-30T03:25:36.984Z,8.75
2023-03-30T03:28:04.855Z,12.73
2023-03-30T03:30:40.499Z,10.38
2023-03-30T03:33:12.098Z,12.50
2023-03-30T03:35:40.787Z,12.00
2023-03-30T03:38:09.171Z,12.02
2023-03-30T03:40:36.392Z,7.18
2023-03-30T03:43:03.007Z,12.70
2023-03-30T03:45:29.655Z,7.18
2023-03-30T03:47:59.008Z,8.13
2023-03-30T03:50:40.034Z,9.70
2023-03-30T03:53:07.048Z,6.35
2023-03-30T03:55:35.249Z,7.78
2023-03-30T03:58:06.014Z,7.30
2023-03-30T04:00:33.716Z,35.93
2023-03-30T04:03:00.400Z,11.93
2023-03-30T04:05:27.087Z,12.50
2023-03-30T04:07:56.605Z,11.90
2023-03-30T04:10:24.005Z,22.75
2023-03-30T04:13:14.775Z,10.23
2023-03-30T04:15:59.917Z,217.77
2023-03-30T04:18:35.296Z,14.25
2023-03-30T04:21:20.178Z,8.60
2023-03-30T04:23:55.122Z,294.15
2023-03-30T04:26:48.677Z,541.47
2023-03-30T04:29:34.680Z,551.53
2023-03-30T04:32:20.881Z,488.98
2023-03-30T04:34:55.711Z,574.53
2023-03-30T04:37:30.268Z,551.88
2023-03-30T04:40:16.854Z,612.53
2023-03-30T04:43:22.629Z,541.70
2023-03-30T04:46:05.004Z,548.97
2023-03-30T04:48:46.289Z,813.22
2023-03-30T04:51:44.907Z,654.05
2023-03-30T04:54:34.685Z,575.05
2023-03-30T04:57:20.503Z,573.35
2023-03-30T05:00:17.413Z,632.00
2023-03-30T05:03:04.924Z,548.10
2023-03-30T05:06:07.444Z,559.67
2023-03-30T05:09:04.015Z,547.53
2023-03-30T05:11:49.397Z,547.65
2023-03-30T05:17:06.373Z,560.67
2023-03-30T05:19:50.446Z,539.67
2023-03-30T05:22:45.116Z,546.65
2023-03-30T05:25:48.790Z,549.50
2023-03-30T05:28:34.337Z,577.42
2023-03-30T05:31:17.170Z,567.50
2023-03-30T05:34:11.886Z,556.80
2023-03-30T05:36:54.046Z,548.92
2023-03-30T05:39:39.586Z,552.45
2023-03-30T05:42:41.317Z,553.45
2023-03-30T05:45:23.921Z,561.92
2023-03-30T05:48:06.713Z,595.03
2023-03-30T05:50:33.252Z,549.08
2023-03-30T05:53:04.942Z,581.47
2023-03-30T05:55:56.914Z,583.35
2023-03-30T05:58:29.464Z,551.08
2023-03-30T06:01:13.310Z,593.80
2023-03-30T06:03:42.197Z,550.38
2023-03-30T06:06:10.362Z,547.40
2023-03-30T06:08:38.388Z,576.08
2023-03-30T06:11:07.853Z,600.00
2023-03-30T06:13:44.503Z,556.40
2023-03-30T06:16:11.740Z,601.92
2023-03-30T06:18:38.722Z,559.58
2023-03-30T06:21:08.917Z,597.97
2023-03-30T06:24:07.901Z,600.53
2023-03-30T06:26:37.766Z,556.05
2023-03-30T06:29:04.466Z,593.65
2023-03-30T06:31:31.454Z,554.50
2023-03-30T06:34:24.030Z,561.35
2023-03-30T06:36:52.222Z,562.22
2023-03-30T06:39:21.836Z,570.08
2023-03-30T06:41:49.956Z,556.13
2023-03-30T06:44:32.485Z,551.30
2023-03-30T06:47:05.957Z,579.67
2023-03-30T06:49:33.103Z,560.63
2023-03-30T06:52:17.329Z,580.15
2023-03-30T06:54:44.550Z,557.58
2023-03-30T06:57:11.313Z,605.22
2023-03-30T06:59:37.955Z,561.17
2023-03-30T07:02:25.726Z,562.28
2023-03-30T07:05:28.575Z,555.13
2023-03-30T07:08:07.718Z,604.45
2023-03-30T07:10:36.241Z,563.45
2023-03-30T07:13:07.337Z,605.72
2023-03-30T07:15:34.670Z,567.88
2023-03-30T07:18:01.369Z,589.15
2023-03-30T07:20:28.097Z,569.75
2023-03-30T07:23:08.089Z,615.97
2023-03-30T07:25:35.972Z,565.22
2023-03-30T07:28:10.745Z,607.53
2023-03-30T07:30:37.498Z,561.15
2023-03-30T07:33:06.219Z,567.30
2023-03-30T07:35:33.025Z,597.50
2023-03-30T07:38:04.127Z,602.70
2023-03-30T07:40:36.371Z,602.78
2023-03-30T07:43:05.439Z,563.67
2023-03-30T07:45:32.077Z,563.55
2023-03-30T07:47:58.800Z,586.97
2023-03-30T07:50:25.796Z,563.45
2023-03-30T07:52:55.900Z,598.65
2023-03-30T07:55:24.846Z,567.28
2023-03-30T07:57:59.363Z,595.97
2023-03-30T08:00:26.277Z,688.67
2023-03-30T08:03:11.881Z,569.20
2023-03-30T08:05:38.689Z,582.65
2023-03-30T08:08:17.913Z,585.65
2023-03-30T08:10:44.720Z,570.92
2023-03-30T08:13:13.004Z,574.63
2023-03-30T08:15:39.769Z,597.80
2023-03-30T08:18:08.596Z,578.60
2023-03-30T08:20:37.212Z,604.10
2023-03-30T08:23:05.040Z,572.90
2023-03-30T08:25:32.254Z,608.90
2023-03-30T08:27:59.026Z,582.33
2023-03-30T08:30:25.740Z,615.75
2023-03-30T08:32:56.062Z,581.35
2023-03-30T08:35:23.951Z,610.67
2023-03-30T08:37:51.011Z,598.92
2023-03-30T08:40:19.603Z,678.55
2023-03-30T08:43:04.957Z,612.22
2023-03-30T08:45:37.227Z,646.75
2023-03-30T08:48:08.199Z,619.40
2023-03-30T08:50:36.382Z,634.72
2023-03-30T08:53:05.120Z,610.35
2023-03-30T08:55:47.314Z,640.83
2023-03-30T08:58:54.145Z,619.70
2023-03-30T09:01:34.761Z,630.55
2023-03-30T09:04:30.834Z,605.72
2023-03-30T09:07:02.220Z,605.40
2023-03-30T09:09:30.307Z,627.55
2023-03-30T09:12:02.994Z,597.35
2023-03-30T09:14:36.295Z,625.03
2023-03-30T09:17:15.222Z,593.33
2023-03-30T09:19:52.184Z,582.30
2023-03-30T09:22:19.596Z,612.13
2023-03-30T09:24:46.645Z,578.88
2023-03-30T09:27:25.227Z,596.33
2023-03-30T09:29:54.562Z,563.15
2023-03-30T09:32:40.608Z,690.45
2023-03-30T09:35:16.066Z,629.50
2023-03-30T09:37:43.365Z,577.40
2023-03-30T09:40:31.051Z,645.58
2023-03-30T09:43:08.803Z,571.45
2023-03-30T09:45:36.036Z,603.35
2023-03-30T09:48:06.731Z,578.40
2023-03-30T09:50:40.988Z,606.55
2023-03-30T09:53:25.049Z,575.03
2023-03-30T09:56:11.174Z,572.65
2023-03-30T09:58:38.137Z,569.25
2023-03-30T10:01:18.508Z,580.00
2023-03-30T10:03:47.085Z,564.13
2023-03-30T10:06:19.439Z,631.67
2023-03-30T10:08:49.056Z,564.78
2023-03-30T10:11:43.027Z,607.17
2023-03-30T10:14:22.123Z,572.35
2023-03-30T10:16:52.422Z,566.97
2023-03-30T10:19:20.971Z,451.20
2023-03-30T10:21:48.094Z,566.08
2023-03-30T10:24:14.579Z,591.90
2023-03-30T10:26:46.433Z,566.20
2023-03-30T10:29:16.176Z,584.42
2023-03-30T10:31:46.073Z,570.22
2023-03-30T10:34:35.735Z,599.10
2023-03-30T10:37:06.952Z,582.38
2023-03-30T10:39:34.510Z,597.75
2023-03-30T10:42:03.250Z,594.60
2023-03-30T10:44:36.365Z,624.75
2023-03-30T10:47:37.722Z,605.10
2023-03-30T10:50:16.556Z,607.15
2023-03-30T10:53:14.311Z,610.35
2023-03-30T10:55:53.840Z,618.00
2023-03-30T10:58:32.040Z,703.25
2023-03-30T11:01:06.292Z,622.65
2023-03-30T11:03:33.997Z,669.72
2023-03-30T11:06:07.111Z,8.55
2023-03-30T11:08:40.005Z,12.27
2023-03-30T11:11:07.573Z,8.55
2023-03-30T11:13:37.377Z,8.70
2023-03-30T11:16:18.450Z,17.23
2023-03-30T11:18:53.681Z,587.67
2023-03-30T11:21:50.104Z,720.58
2023-03-30T11:24:24.375Z,9.30
2023-03-30T11:26:59.815Z,13.77
2023-03-30T11:29:49.437Z,5.65
2023-03-30T11:32:25.088Z,8.05
2023-03-30T11:35:38.218Z,10.10
2023-03-30T11:38:24.787Z,10.50
2023-03-30T11:41:15.180Z,9.25
2023-03-30T11:43:41.939Z,12.20
2023-03-30T11:46:30.104Z,11.20
2023-03-30T11:49:34.157Z,41.75
2023-03-30T11:52:22.230Z,8.77
2023-03-30T11:55:28.188Z,13.70
2023-03-30T11:58:14.633Z,10.60
2023-03-30T12:00:59.342Z,20.98
2023-03-30T12:03:39.104Z,21.17
2023-03-30T12:06:18.304Z,19.35
2023-03-30T12:09:02.370Z,15.32
2023-03-30T12:11:50.724Z,22.95
2023-03-30T12:14:45.703Z,16.85
2023-03-30T12:17:18.505Z,24.17
2023-03-30T12:19:56.654Z,22.92
2023-03-30T12:22:50.163Z,14.73
2023-03-30T12:25:39.305Z,16.00
2023-03-30T12:28:16.802Z,18.95
2023-03-30T12:30:55.110Z,14.48
2023-03-30T12:33:36.263Z,10.20
2023-03-30T12:36:05.331Z,17.35
2023-03-30T12:38:38.250Z,9.40
2023-03-30T12:41:14.410Z,13.82
2023-03-30T12:43:48.241Z,12.02
2023-03-30T12:46:26.260Z,9.02
2023-03-30T12:49:08.171Z,15.13
2023-03-30T12:51:49.665Z,12.77
2023-03-30T12:57:03.239Z,16.83
2023-03-30T12:59:49.297Z,17.60
2023-03-30T13:02:43.575Z,12.45
2023-03-30T13:05:19.548Z,9.02
2023-03-30T13:07:46.180Z,14.77
2023-03-30T13:10:30.949Z,7.13
2023-03-30T13:12:59.603Z,14.30
2023-03-30T13:15:40.527Z,11.25
2023-03-30T13:18:10.014Z,7.82
2023-03-30T13:20:56.507Z,7.93
2023-03-30T13:23:23.160Z,8.10
2023-03-30T13:26:06.038Z,15.25
2023-03-30T13:28:57.342Z,367.92
2023-03-30T13:31:34.720Z,76.93
2023-03-30T13:34:26.151Z,597.30
2023-03-30T13:37:05.614Z,608.72
2023-03-30T13:39:42.556Z,649.92
2023-03-30T13:42:45.792Z,615.63
2023-03-30T13:45:21.797Z,672.20
2023-03-30T13:47:57.451Z,609.80
2023-03-30T13:50:28.510Z,633.63
2023-03-30T13:52:57.938Z,607.80
2023-03-30T13:55:33.111Z,740.45
2023-03-30T13:58:03.908Z,630.53
2023-03-30T14:00:50.967Z,603.80
2023-03-30T14:03:32.851Z,601.42
2023-03-30T14:06:20.824Z,632.40
2023-03-30T14:08:49.838Z,640.13
2023-03-30T14:11:35.777Z,593.78
2023-03-30T14:14:03.637Z,610.38
2023-03-30T14:16:36.703Z,588.85
2023-03-30T14:19:21.397Z,601.17
2023-03-30T14:21:48.188Z,722.72
2023-03-30T14:24:18.180Z,613.35
2023-03-30T14:26:47.221Z,599.42
2023-03-30T14:29:24.641Z,611.08
2023-03-30T14:32:08.040Z,591.95
2023-03-30T14:34:36.586Z,607.35
2023-03-30T14:37:07.645Z,592.70
2023-03-30T14:39:42.485Z,614.80
2023-03-30T14:42:33.907Z,590.72
2023-03-30T14:45:01.529Z,590.72
2023-03-30T14:47:28.739Z,691.40
2023-03-30T14:49:58.205Z,594.55
2023-03-30T14:52:32.681Z,615.40
2023-03-30T14:55:07.396Z,591.90
2023-03-30T14:57:37.906Z,782.38
2023-03-30T15:00:20.425Z,597.15
2023-03-30T15:02:52.490Z,625.05
2023-03-30T15:05:20.867Z,638.92
2023-03-30T15:07:51.004Z,591.95
2023-03-30T15:10:23.379Z,612.50
2023-03-30T15:12:52.505Z,691.88
2023-03-30T15:15:21.394Z,610.00
2023-03-30T15:17:49.716Z,585.45
2023-03-30T15:20:17.622Z,608.60
2023-03-30T15:22:49.198Z,584.13
2023-03-30T15:25:18.790Z,577.65
2023-03-30T15:28:07.347Z,565.13
2023-03-30T15:30:38.035Z,573.08
2023-03-30T15:33:07.256Z,544.83
2023-03-30T15:35:35.625Z,580.88
2023-03-30T15:38:10.959Z,547.75
2023-03-30T15:40:42.373Z,590.42
2023-03-30T15:43:22.735Z,546.10
2023-03-30T15:45:57.567Z,607.20
2023-03-30T15:48:33.517Z,544.70
2023-03-30T15:51:11.565Z,551.25
2023-03-30T15:53:43.100Z,598.42
2023-03-30T15:56:18.002Z,551.03
2023-03-30T15:58:44.782Z,610.88
2023-03-30T16:01:14.610Z,623.80
2023-03-30T16:03:50.145Z,552.97
2023-03-30T16:06:17.685Z,584.30
2023-03-30T16:08:45.135Z,553.22
2023-03-30T16:11:14.955Z,614.22
2023-03-30T16:13:46.505Z,582.95
2023-03-30T16:18:42.740Z,573.67
2023-03-30T16:21:10.809Z,539.40
2023-03-30T16:23:37.771Z,564.33
2023-03-30T16:26:05.313Z,544.22
2023-03-30T16:28:31.905Z,544.30
2023-03-30T16:31:01.712Z,596.28
2023-03-30T16:33:28.261Z,538.72
2023-03-30T16:35:54.922Z,665.55
2023-03-30T16:38:21.521Z,541.60
2023-03-30T16:40:52.689Z,645.42
2023-03-30T16:43:19.239Z,541.85
2023-03-30T16:45:46.367Z,725.33
2023-03-30T16:48:14.930Z,541.85
2023-03-30T16:50:43.810Z,566.70
2023-03-30T16:53:10.997Z,534.45
2023-03-30T16:55:38.710Z,547.55
2023-03-30T16:58:06.619Z,526.90
2023-03-30T17:00:46.296Z,537.78
2023-03-30T17:03:13.792Z,529.92
2023-03-30T17:05:40.747Z,550.92
2023-03-30T17:08:16.530Z,541.90
2023-03-30T17:10:43.122Z,562.08
2023-03-30T17:13:09.695Z,534.33
2023-03-30T17:15:38.629Z,527.95
2023-03-30T17:18:08.928Z,625.60
2023-03-30T17:20:42.962Z,539.33
2023-03-30T17:23:10.473Z,671.67
2023-03-30T17:25:39.794Z,535.80
2023-03-30T17:28:10.059Z,572.00
2023-03-30T17:30:40.109Z,529.70
2023-03-30T17:33:12.757Z,728.80
2023-03-30T17:35:39.970Z,523.00
2023-03-30T17:38:08.852Z,575.72
2023-03-30T17:40:39.638Z,526.00
2023-03-30T17:43:07.095Z,571.72
2023-03-30T17:45:35.059Z,520.60
2023-03-30T17:48:02.098Z,551.83
2023-03-30T17:50:34.920Z,523.65
2023-03-30T17:53:02.067Z,545.40
2023-03-30T17:55:31.833Z,516.72
2023-03-30T17:57:58.714Z,537.00
2023-03-30T18:00:32.641Z,516.55
2023-03-30T18:03:01.256Z,542.47
2023-03-30T18:05:29.658Z,516.05
2023-03-30T18:07:56.403Z,538.47
2023-03-30T18:10:28.417Z,555.00
2023-03-30T18:12:55.539Z,533.58
2023-03-30T18:15:25.525Z,537.55
2023-03-30T18:17:52.639Z,517.10
2023-03-30T18:20:26.732Z,573.90
2023-03-30T18:22:53.446Z,529.50
2023-03-30T18:25:31.366Z,584.65
2023-03-30T18:27:59.430Z,546.15
2023-03-30T18:30:34.194Z,530.22
2023-03-30T18:33:00.707Z,564.60
2023-03-30T18:35:29.298Z,523.13
2023-03-30T18:37:56.361Z,578.50
2023-03-30T18:40:32.936Z,523.30
2023-03-30T18:43:00.208Z,566.92
2023-03-30T18:45:28.783Z,533.83
2023-03-30T18:47:56.620Z,581.70
2023-03-30T18:50:36.204Z,530.70
2023-03-30T18:53:05.987Z,561.03
2023-03-30T18:55:34.966Z,533.70
2023-03-30T18:58:02.485Z,567.72
2023-03-30T19:00:31.829Z,550.92
2023-03-30T19:02:59.001Z,586.83
2023-03-30T19:05:27.361Z,557.42
2023-03-30T19:07:54.314Z,533.88
2023-03-30T19:10:23.250Z,601.13
2023-03-30T19:12:53.300Z,536.10
2023-03-30T19:15:25.329Z,601.40
2023-03-30T19:17:52.458Z,540.13
2023-03-30T19:20:24.620Z,588.28
2023-03-30T19:22:51.395Z,536.28
2023-03-30T19:25:19.346Z,588.22
2023-03-30T19:27:59.519Z,577.25
2023-03-30T19:30:29.814Z,574.40
2023-03-30T19:32:58.911Z,532.42
2023-03-30T19:35:25.713Z,562.38
2023-03-30T19:37:52.485Z,542.03
2023-03-30T19:40:20.283Z,586.80
2023-03-30T19:42:48.176Z,548.80
2023-03-30T19:45:16.642Z,595.83
2023-03-30T19:47:43.705Z,591.88
2023-03-30T19:50:15.052Z,593.97
2023-03-30T19:52:41.831Z,561.80
2023-03-30T19:55:09.679Z,591.72
2023-03-30T19:57:37.298Z,574.65
2023-03-30T20:00:12.159Z,541.08
2023-03-30T20:02:39.632Z,638.80
2023-03-30T20:05:07.368Z,565.40
2023-03-30T20:07:33.857Z,577.92
2023-03-30T20:10:00.824Z,540.50
2023-03-30T20:12:27.947Z,573.17
2023-03-30T20:14:55.960Z,537.13
2023-03-30T20:17:22.451Z,558.38
2023-03-30T20:19:49.092Z,530.67
2023-03-30T20:22:15.655Z,557.50
2023-03-30T20:24:44.007Z,573.55
2023-03-30T20:27:11.582Z,14.02
2023-03-30T20:29:38.166Z,8.73
2023-03-30T20:32:04.821Z,12.02
2023-03-30T20:34:34.818Z,9.75
2023-03-30T20:37:01.363Z,12.90
2023-03-30T20:39:27.986Z,12.43
2023-03-30T20:41:58.073Z,11.07
2023-03-30T20:44:30.272Z,12.60
2023-03-30T20:46:58.244Z,558.75
2023-03-30T20:49:25.187Z,7.10
2023-03-30T20:51:53.008Z,8.48
2023-03-30T20:54:20.560Z,9.15
2023-03-30T20:56:47.181Z,11.18
2023-03-30T20:59:13.843Z,10.00
2023-03-30T21:01:40.915Z,9.85
2023-03-30T21:04:08.068Z,8.68
2023-03-30T21:06:35.038Z,6.53
2023-03-30T21:09:04.522Z,8.60
2023-03-30T21:11:34.010Z,4.82
2023-03-30T21:14:01.893Z,3.60
2023-03-30T21:16:28.481Z,3.42
2023-03-30T21:18:55.344Z,10.65
2023-03-30T21:21:21.920Z,7.70
2023-03-30T21:23:49.255Z,5.43
2023-03-30T21:26:18.397Z,5.35
2023-03-30T21:28:45.388Z,10.10
2023-03-30T21:31:17.021Z,18.67
2023-03-30T21:33:44.238Z,5.55
2023-03-30T21:36:11.287Z,10.80
2023-03-30T21:38:38.153Z,8.68
2023-03-30T21:41:12.256Z,8.23
2023-03-30T21:43:44.757Z,5.07
2023-03-30T21:46:15.160Z,6.07
2023-03-30T21:48:43.659Z,11.73
2023-03-30T21:51:14.236Z,8.25
2023-03-30T21:53:42.276Z,8.93
2023-03-30T21:56:09.513Z,6.60
2023-03-30T21:58:36.113Z,6.60
2023-03-30T22:01:11.848Z,11.48
2023-03-30T22:03:45.865Z,8.63
2023-03-30T22:06:14.318Z,14.98
2023-03-30T22:08:41.889Z,12.10
2023-03-30T22:11:12.297Z,9.15
2023-03-30T22:13:38.966Z,15.93
2023-03-30T22:16:16.864Z,20.55
2023-03-30T22:18:43.986Z,16.63
2023-03-30T22:21:16.965Z,18.30
2023-03-30T22:23:43.710Z,16.35
2023-03-30T22:26:11.434Z,15.10
2023-03-30T22:28:38.061Z,16.02
2023-03-30T22:31:09.070Z,21.15
2023-03-30T22:33:35.736Z,24.08
2023-03-30T22:36:03.578Z,17.42
2023-03-30T22:38:31.157Z,19.27
2023-03-30T22:41:07.282Z,19.50
2023-03-30T22:43:35.813Z,23.60
2023-03-30T22:46:08.019Z,20.13
2023-03-30T22:48:35.715Z,21.55
2023-03-30T22:51:04.054Z,20.13
2023-03-30T22:53:31.735Z,14.82
2023-03-30T22:55:58.578Z,14.18
2023-03-30T22:58:25.283Z,18.67
2023-03-30T23:00:52.082Z,12.20
2023-03-30T23:03:18.861Z,17.58
2023-03-30T23:05:52.042Z,19.75
2023-03-30T23:08:18.873Z,9.35
2023-03-30T23:10:45.934Z,21.10
2023-03-30T23:13:14.098Z,10.05
2023-03-30T23:15:42.654Z,11.85
2023-03-30T23:18:09.352Z,13.10
2023-03-30T23:20:36.563Z,15.70
2023-03-30T23:23:03.373Z,12.70
2023-03-30T23:25:29.948Z,15.85
2023-03-30T23:27:57.925Z,12.13
2023-03-30T23:30:24.503Z,13.52
2023-03-30T23:32:51.273Z,7.43
2023-03-30T23:35:17.832Z,7.25
2023-03-30T23:37:45.361Z,12.20
2023-03-30T23:40:12.480Z,13.98
2023-03-30T23:42:39.077Z,8.27
2023-03-30T23:45:06.317Z,12.60
2023-03-30T23:47:32.906Z,13.77
2023-03-30T23:49:59.447Z,10.27
2023-03-30T23:52:26.959Z,7.25
2023-03-30T23:54:53.726Z,9.02
2023-03-30T23:57:20.501Z,9.95
2023-03-30T23:59:47.111Z,6.38
